sensor_id;sensor_type;location;lat;lon;timestamp;temperature;humidity
67131;HTU21D;54051;53.464;49.532;2023-05-16T00:00:36;12.66;75.01
67131;HTU21D;54051;53.464;49.532;2023-05-16T00:03:03;12.65;75.90
67131;HTU21D;54051;53.464;49.532;2023-05-16T00:05:29;12.63;76.91
67131;HTU21D;54051;53.464;49.532;2023-05-16T00:07:55;12.59;77.08
67131;HTU21D;54051;53.464;49.532;2023-05-16T00:10:20;12.56;77.00
67131;HTU21D;54051;53.464;49.532;2023-05-16T00:12:46;12.56;76.90
67131;HTU21D;54051;53.464;49.532;2023-05-16T00:15:16;12.51;76.21
67131;HTU21D;54051;53.464;49.532;2023-05-16T00:17:42;12.52;76.39
67131;HTU21D;54051;53.464;49.532;2023-05-16T00:20:12;12.58;75.90
67131;HTU21D;54051;53.464;49.532;2023-05-16T00:22:39;12.65;75.38
67131;HTU21D;54051;53.464;49.532;2023-05-16T00:25:10;12.63;75.15
67131;HTU21D;54051;53.464;49.532;2023-05-16T00:27:36;12.66;75.18
67131;HTU21D;54051;53.464;49.532;2023-05-16T00:30:02;12.69;75.45
67131;HTU21D;54051;53.464;49.532;2023-05-16T00:32:28;12.62;75.18
67131;HTU21D;54051;53.464;49.532;2023-05-16T00:34:54;12.56;75.56
67131;HTU21D;54051;53.464;49.532;2023-05-16T00:37:20;12.50;76.02
67131;HTU21D;54051;53.464;49.532;2023-05-16T00:39:45;12.42;76.29
67131;HTU21D;54051;53.464;49.532;2023-05-16T00:42:11;12.37;76.55
67131;HTU21D;54051;53.464;49.532;2023-05-16T00:44:38;12.37;76.02
67131;HTU21D;54051;53.464;49.532;2023-05-16T00:47:04;12.38;76.42
67131;HTU21D;54051;53.464;49.532;2023-05-16T00:49:30;12.40;76.21
67131;HTU21D;54051;53.464;49.532;2023-05-16T00:51:56;12.37;76.62
67131;HTU21D;54051;53.464;49.532;2023-05-16T00:54:23;12.33;77.02
67131;HTU21D;54051;53.464;49.532;2023-05-16T00:56:51;12.35;77.16
67131;HTU21D;54051;53.464;49.532;2023-05-16T00:59:18;12.44;77.09
67131;HTU21D;54051;53.464;49.532;2023-05-16T01:01:45;12.51;76.55
67131;HTU21D;54051;53.464;49.532;2023-05-16T01:04:11;12.59;76.50
67131;HTU21D;54051;53.464;49.532;2023-05-16T01:06:37;12.67;76.30
67131;HTU21D;54051;53.464;49.532;2023-05-16T01:09:03;12.65;76.42
67131;HTU21D;54051;53.464;49.532;2023-05-16T01:21:41;12.28;78.39
67131;HTU21D;54051;53.464;49.532;2023-05-16T01:24:21;12.30;78.34
67131;HTU21D;54051;53.464;49.532;2023-05-16T01:26:48;12.31;78.20
67131;HTU21D;54051;53.464;49.532;2023-05-16T01:29:14;12.30;78.26
67131;HTU21D;54051;53.464;49.532;2023-05-16T01:31:40;12.31;78.24
67131;HTU21D;54051;53.464;49.532;2023-05-16T01:34:06;12.32;78.11
67131;HTU21D;54051;53.464;49.532;2023-05-16T01:36:51;12.35;78.01
67131;HTU21D;54051;53.464;49.532;2023-05-16T01:42:09;12.33;77.85
67131;HTU21D;54051;53.464;49.532;2023-05-16T01:44:42;12.31;78.03
67131;HTU21D;54051;53.464;49.532;2023-05-16T01:47:11;12.36;77.74
67131;HTU21D;54051;53.464;49.532;2023-05-16T01:58:12;12.70;76.34
67131;HTU21D;54051;53.464;49.532;2023-05-16T02:00:41;12.73;76.22
67131;HTU21D;54051;53.464;49.532;2023-05-16T02:03:07;12.77;76.06
67131;HTU21D;54051;53.464;49.532;2023-05-16T02:05:33;12.75;75.90
67131;HTU21D;54051;53.464;49.532;2023-05-16T02:07:59;12.66;76.49
67131;HTU21D;54051;53.464;49.532;2023-05-16T02:10:25;12.70;76.80
67131;HTU21D;54051;53.464;49.532;2023-05-16T02:12:51;12.85;76.04
67131;HTU21D;54051;53.464;49.532;2023-05-16T02:15:18;12.90;75.62
67131;HTU21D;54051;53.464;49.532;2023-05-16T02:17:43;12.93;75.51
67131;HTU21D;54051;53.464;49.532;2023-05-16T02:20:09;12.94;75.64
67131;HTU21D;54051;53.464;49.532;2023-05-16T02:22:36;12.97;75.44
67131;HTU21D;54051;53.464;49.532;2023-05-16T02:25:09;12.82;76.07
67131;HTU21D;54051;53.464;49.532;2023-05-16T02:27:35;12.75;76.58
67131;HTU21D;54051;53.464;49.532;2023-05-16T02:30:01;12.79;76.35
67131;HTU21D;54051;53.464;49.532;2023-05-16T02:32:27;12.91;76.11
67131;HTU21D;54051;53.464;49.532;2023-05-16T02:34:53;13.11;74.97
67131;HTU21D;54051;53.464;49.532;2023-05-16T02:37:18;13.20;74.31
67131;HTU21D;54051;53.464;49.532;2023-05-16T02:39:44;13.15;74.48
67131;HTU21D;54051;53.464;49.532;2023-05-16T02:42:10;13.19;74.03
67131;HTU21D;54051;53.464;49.532;2023-05-16T02:44:36;13.20;74.30
67131;HTU21D;54051;53.464;49.532;2023-05-16T02:47:07;13.19;74.35
67131;HTU21D;54051;53.464;49.532;2023-05-16T02:49:33;13.12;74.57
67131;HTU21D;54051;53.464;49.532;2023-05-16T02:51:59;13.08;74.73
67131;HTU21D;54051;53.464;49.532;2023-05-16T02:54:25;13.06;74.96
67131;HTU21D;54051;53.464;49.532;2023-05-16T02:56:50;13.12;74.85
67131;HTU21D;54051;53.464;49.532;2023-05-16T02:59:16;13.29;73.87
67131;HTU21D;54051;53.464;49.532;2023-05-16T03:01:42;13.34;74.04
67131;HTU21D;54051;53.464;49.532;2023-05-16T03:04:08;13.46;73.41
67131;HTU21D;54051;53.464;49.532;2023-05-16T03:06:34;13.58;73.01
67131;HTU21D;54051;53.464;49.532;2023-05-16T03:09:00;13.68;72.78
67131;HTU21D;54051;53.464;49.532;2023-05-16T03:11:25;13.86;72.03
67131;HTU21D;54051;53.464;49.532;2023-05-16T03:13:53;14.10;71.16
67131;HTU21D;54051;53.464;49.532;2023-05-16T03:16:19;14.19;71.19
67131;HTU21D;54051;53.464;49.532;2023-05-16T03:18:46;14.03;72.20
67131;HTU21D;54051;53.464;49.532;2023-05-16T03:21:12;13.78;73.35
67131;HTU21D;54051;53.464;49.532;2023-05-16T03:23:37;13.82;73.14
67131;HTU21D;54051;53.464;49.532;2023-05-16T03:26:09;13.99;72.45
67131;HTU21D;54051;53.464;49.532;2023-05-16T03:28:35;14.15;71.93
67131;HTU21D;54051;53.464;49.532;2023-05-16T03:31:01;14.32;71.18
67131;HTU21D;54051;53.464;49.532;2023-05-16T03:33:27;14.39;71.00
67131;HTU21D;54051;53.464;49.532;2023-05-16T03:35:53;14.42;70.31
67131;HTU21D;54051;53.464;49.532;2023-05-16T03:38:18;14.43;70.68
67131;HTU21D;54051;53.464;49.532;2023-05-16T03:40:44;14.38;71.03
67131;HTU21D;54051;53.464;49.532;2023-05-16T03:43:10;14.43;70.77
67131;HTU21D;54051;53.464;49.532;2023-05-16T03:45:36;14.55;70.75
67131;HTU21D;54051;53.464;49.532;2023-05-16T03:48:02;14.85;69.04
67131;HTU21D;54051;53.464;49.532;2023-05-16T03:50:28;15.26;67.40
67131;HTU21D;54051;53.464;49.532;2023-05-16T03:52:54;15.60;66.36
67131;HTU21D;54051;53.464;49.532;2023-05-16T03:55:20;15.96;64.71
67131;HTU21D;54051;53.464;49.532;2023-05-16T03:57:45;16.31;63.35
67131;HTU21D;54051;53.464;49.532;2023-05-16T04:00:12;16.63;62.22
67131;HTU21D;54051;53.464;49.532;2023-05-16T04:02:39;17.39;59.52
67131;HTU21D;54051;53.464;49.532;2023-05-16T04:05:08;18.28;56.87
67131;HTU21D;54051;53.464;49.532;2023-05-16T04:07:35;18.91;54.67
67131;HTU21D;54051;53.464;49.532;2023-05-16T04:10:02;19.69;52.20
67131;HTU21D;54051;53.464;49.532;2023-05-16T04:12:28;19.99;51.03
67131;HTU21D;54051;53.464;49.532;2023-05-16T04:14:54;20.21;50.40
67131;HTU21D;54051;53.464;49.532;2023-05-16T04:17:20;20.31;50.24
67131;HTU21D;54051;53.464;49.532;2023-05-16T04:19:46;20.99;48.50
67131;HTU21D;54051;53.464;49.532;2023-05-16T04:22:12;20.72;48.52
67131;HTU21D;54051;53.464;49.532;2023-05-16T04:24:43;20.61;49.48
67131;HTU21D;54051;53.464;49.532;2023-05-16T04:27:09;20.69;49.55
67131;HTU21D;54051;53.464;49.532;2023-05-16T04:29:35;21.16;47.80
67131;HTU21D;54051;53.464;49.532;2023-05-16T04:32:01;21.31;47.78
67131;HTU21D;54051;53.464;49.532;2023-05-16T04:34:27;22.37;45.13
67131;HTU21D;54051;53.464;49.532;2023-05-16T04:36:53;24.19;40.27
67131;HTU21D;54051;53.464;49.532;2023-05-16T04:39:18;25.29;37.47
67131;HTU21D;54051;53.464;49.532;2023-05-16T04:41:44;24.28;38.96
67131;HTU21D;54051;53.464;49.532;2023-05-16T04:44:10;23.06;41.55
67131;HTU21D;54051;53.464;49.532;2023-05-16T04:46:36;22.39;43.71
67131;HTU21D;54051;53.464;49.532;2023-05-16T04:49:02;22.43;44.00
67131;HTU21D;54051;53.464;49.532;2023-05-16T04:51:28;22.79;42.52
67131;HTU21D;54051;53.464;49.532;2023-05-16T04:53:54;22.76;42.71
67131;HTU21D;54051;53.464;49.532;2023-05-16T04:56:19;23.14;42.00
67131;HTU21D;54051;53.464;49.532;2023-05-16T04:58:45;23.88;40.47
67131;HTU21D;54051;53.464;49.532;2023-05-16T05:01:11;25.39;36.99
67131;HTU21D;54051;53.464;49.532;2023-05-16T05:03:37;28.12;31.06
67131;HTU21D;54051;53.464;49.532;2023-05-16T05:06:03;28.11;30.30
67131;HTU21D;54051;53.464;49.532;2023-05-16T05:08:29;25.83;34.92
67131;HTU21D;54051;53.464;49.532;2023-05-16T05:10:55;24.76;37.57
67131;HTU21D;54051;53.464;49.532;2023-05-16T05:13:21;25.50;36.39
67131;HTU21D;54051;53.464;49.532;2023-05-16T05:15:47;27.12;32.78
67131;HTU21D;54051;53.464;49.532;2023-05-16T05:18:14;28.75;30.47
67131;HTU21D;54051;53.464;49.532;2023-05-16T05:20:40;29.09;29.55
67131;HTU21D;54051;53.464;49.532;2023-05-16T05:23:06;29.61;28.62
67131;HTU21D;54051;53.464;49.532;2023-05-16T05:25:38;30.53;26.55
67131;HTU21D;54051;53.464;49.532;2023-05-16T05:28:05;31.59;24.76
67131;HTU21D;54051;53.464;49.532;2023-05-16T05:30:31;32.33;23.30
67131;HTU21D;54051;53.464;49.532;2023-05-16T05:32:57;32.74;22.73
67131;HTU21D;54051;53.464;49.532;2023-05-16T05:35:23;33.00;22.45
67131;HTU21D;54051;53.464;49.532;2023-05-16T05:37:48;32.68;22.90
67131;HTU21D;54051;53.464;49.532;2023-05-16T05:40:14;32.42;23.37
67131;HTU21D;54051;53.464;49.532;2023-05-16T05:42:40;32.42;23.72
67131;HTU21D;54051;53.464;49.532;2023-05-16T05:45:06;32.67;23.13
67131;HTU21D;54051;53.464;49.532;2023-05-16T05:47:32;32.57;23.66
67131;HTU21D;54051;53.464;49.532;2023-05-16T05:49:58;32.54;24.08
67131;HTU21D;54051;53.464;49.532;2023-05-16T05:52:24;32.92;23.30
67131;HTU21D;54051;53.464;49.532;2023-05-16T05:54:50;32.94;23.67
67131;HTU21D;54051;53.464;49.532;2023-05-16T05:57:16;33.02;23.89
67131;HTU21D;54051;53.464;49.532;2023-05-16T05:59:41;33.64;24.05
67131;HTU21D;54051;53.464;49.532;2023-05-16T06:02:07;34.36;22.02
67131;HTU21D;54051;53.464;49.532;2023-05-16T06:04:33;34.06;22.54
67131;HTU21D;54051;53.464;49.532;2023-05-16T06:06:59;34.23;22.23
67131;HTU21D;54051;53.464;49.532;2023-05-16T06:09:25;34.41;21.70
67131;HTU21D;54051;53.464;49.532;2023-05-16T06:11:51;34.11;21.87
67131;HTU21D;54051;53.464;49.532;2023-05-16T06:14:17;33.91;22.34
67131;HTU21D;54051;53.464;49.532;2023-05-16T06:16:42;34.05;22.38
67131;HTU21D;54051;53.464;49.532;2023-05-16T06:19:08;34.12;21.80
67131;HTU21D;54051;53.464;49.532;2023-05-16T06:21:34;34.01;22.08
67131;HTU21D;54051;53.464;49.532;2023-05-16T06:24:00;33.79;22.25
67131;HTU21D;54051;53.464;49.532;2023-05-16T06:26:32;34.44;21.73
67131;HTU21D;54051;53.464;49.532;2023-05-16T06:28:58;35.03;20.44
67131;HTU21D;54051;53.464;49.532;2023-05-16T06:31:23;35.43;19.72
67131;HTU21D;54051;53.464;49.532;2023-05-16T06:33:49;35.37;20.11
67131;HTU21D;54051;53.464;49.532;2023-05-16T06:36:15;35.10;20.42
67131;HTU21D;54051;53.464;49.532;2023-05-16T06:38:41;34.33;21.68
67131;HTU21D;54051;53.464;49.532;2023-05-16T06:41:07;34.20;21.76
67131;HTU21D;54051;53.464;49.532;2023-05-16T06:43:33;34.15;21.57
67131;HTU21D;54051;53.464;49.532;2023-05-16T06:45:59;33.77;22.08
67131;HTU21D;54051;53.464;49.532;2023-05-16T06:48:25;33.80;22.64
67131;HTU21D;54051;53.464;49.532;2023-05-16T06:50:51;33.95;22.35
67131;HTU21D;54051;53.464;49.532;2023-05-16T06:53:17;34.14;22.06
67131;HTU21D;54051;53.464;49.532;2023-05-16T06:55:43;33.92;22.03
67131;HTU21D;54051;53.464;49.532;2023-05-16T06:58:09;33.82;22.30
67131;HTU21D;54051;53.464;49.532;2023-05-16T07:00:35;33.30;23.41
67131;HTU21D;54051;53.464;49.532;2023-05-16T07:03:01;32.78;23.96
67131;HTU21D;54051;53.464;49.532;2023-05-16T07:05:28;32.47;24.69
67131;HTU21D;54051;53.464;49.532;2023-05-16T07:07:54;33.06;23.85
67131;HTU21D;54051;53.464;49.532;2023-05-16T07:10:20;33.20;23.53
67131;HTU21D;54051;53.464;49.532;2023-05-16T07:12:46;33.90;22.76
67131;HTU21D;54051;53.464;49.532;2023-05-16T07:15:13;33.83;22.33
67131;HTU21D;54051;53.464;49.532;2023-05-16T07:17:39;33.18;23.85
67131;HTU21D;54051;53.464;49.532;2023-05-16T07:20:05;33.20;23.72
67131;HTU21D;54051;53.464;49.532;2023-05-16T07:22:31;33.23;23.55
67131;HTU21D;54051;53.464;49.532;2023-05-16T07:25:03;33.12;23.65
67131;HTU21D;54051;53.464;49.532;2023-05-16T07:27:29;33.25;23.53
67131;HTU21D;54051;53.464;49.532;2023-05-16T07:29:56;33.08;23.89
67131;HTU21D;54051;53.464;49.532;2023-05-16T07:32:22;33.57;23.23
67131;HTU21D;54051;53.464;49.532;2023-05-16T07:34:48;33.32;23.37
67131;HTU21D;54051;53.464;49.532;2023-05-16T07:37:14;32.47;25.16
67131;HTU21D;54051;53.464;49.532;2023-05-16T07:39:40;32.38;24.71
67131;HTU21D;54051;53.464;49.532;2023-05-16T07:42:07;32.31;24.30
67131;HTU21D;54051;53.464;49.532;2023-05-16T07:44:33;32.93;23.60
67131;HTU21D;54051;53.464;49.532;2023-05-16T07:46:59;32.38;24.68
67131;HTU21D;54051;53.464;49.532;2023-05-16T07:49:25;32.13;24.80
67131;HTU21D;54051;53.464;49.532;2023-05-16T07:51:51;32.19;25.03
67131;HTU21D;54051;53.464;49.532;2023-05-16T07:54:17;32.19;25.34
67131;HTU21D;54051;53.464;49.532;2023-05-16T07:56:42;32.05;25.44
67131;HTU21D;54051;53.464;49.532;2023-05-16T07:59:08;32.00;25.94
67131;HTU21D;54051;53.464;49.532;2023-05-16T08:01:35;31.71;26.30
67131;HTU21D;54051;53.464;49.532;2023-05-16T08:04:00;30.66;28.59
67131;HTU21D;54051;53.464;49.532;2023-05-16T08:06:26;28.94;31.83
67131;HTU21D;54051;53.464;49.532;2023-05-16T08:08:52;27.89;34.28
67131;HTU21D;54051;53.464;49.532;2023-05-16T08:11:18;26.68;37.00
67131;HTU21D;54051;53.464;49.532;2023-05-16T08:13:47;26.16;38.65
67131;HTU21D;54051;53.464;49.532;2023-05-16T08:16:13;26.06;39.00
67131;HTU21D;54051;53.464;49.532;2023-05-16T08:18:38;25.72;39.99
67131;HTU21D;54051;53.464;49.532;2023-05-16T08:21:05;25.67;39.89
67131;HTU21D;54051;53.464;49.532;2023-05-16T08:23:31;25.46;40.26
67131;HTU21D;54051;53.464;49.532;2023-05-16T08:26:02;24.93;42.13
67131;HTU21D;54051;53.464;49.532;2023-05-16T08:28:28;24.66;42.29
67131;HTU21D;54051;53.464;49.532;2023-05-16T08:30:54;24.70;42.13
67131;HTU21D;54051;53.464;49.532;2023-05-16T08:33:20;24.25;43.04
67131;HTU21D;54051;53.464;49.532;2023-05-16T08:35:46;24.29;43.13
67131;HTU21D;54051;53.464;49.532;2023-05-16T08:38:13;24.50;42.84
67131;HTU21D;54051;53.464;49.532;2023-05-16T08:40:39;24.74;41.64
67131;HTU21D;54051;53.464;49.532;2023-05-16T08:43:05;24.84;41.93
67131;HTU21D;54051;53.464;49.532;2023-05-16T08:45:31;24.74;41.52
67131;HTU21D;54051;53.464;49.532;2023-05-16T08:47:59;24.47;41.90
67131;HTU21D;54051;53.464;49.532;2023-05-16T08:50:25;24.50;41.85
67131;HTU21D;54051;53.464;49.532;2023-05-16T08:52:53;24.73;41.41
67131;HTU21D;54051;53.464;49.532;2023-05-16T08:55:19;24.80;41.13
67131;HTU21D;54051;53.464;49.532;2023-05-16T08:57:48;24.70;42.87
67131;HTU21D;54051;53.464;49.532;2023-05-16T09:00:14;24.34;43.86
67131;HTU21D;54051;53.464;49.532;2023-05-16T09:02:40;24.30;44.42
67131;HTU21D;54051;53.464;49.532;2023-05-16T09:05:07;24.39;44.55
67131;HTU21D;54051;53.464;49.532;2023-05-16T09:07:34;24.57;44.16
67131;HTU21D;54051;53.464;49.532;2023-05-16T09:09:59;24.77;41.47
67131;HTU21D;54051;53.464;49.532;2023-05-16T09:12:25;24.93;42.16
67131;HTU21D;54051;53.464;49.532;2023-05-16T09:14:51;25.20;39.43
67131;HTU21D;54051;53.464;49.532;2023-05-16T09:17:17;25.18;40.36
67131;HTU21D;54051;53.464;49.532;2023-05-16T09:19:43;24.80;42.52
67131;HTU21D;54051;53.464;49.532;2023-05-16T09:22:12;25.08;38.58
67131;HTU21D;54051;53.464;49.532;2023-05-16T09:24:46;25.04;34.65
67131;HTU21D;54051;53.464;49.532;2023-05-16T09:27:14;24.74;33.45
67131;HTU21D;54051;53.464;49.532;2023-05-16T09:29:40;24.28;28.32
67131;HTU21D;54051;53.464;49.532;2023-05-16T09:32:13;24.18;29.68
67131;HTU21D;54051;53.464;49.532;2023-05-16T09:34:42;24.28;28.96
67131;HTU21D;54051;53.464;49.532;2023-05-16T09:37:09;24.26;28.88
67131;HTU21D;54051;53.464;49.532;2023-05-16T09:39:37;24.51;28.44
67131;HTU21D;54051;53.464;49.532;2023-05-16T09:42:03;24.56;28.78
67131;HTU21D;54051;53.464;49.532;2023-05-16T09:44:30;24.69;28.41
67131;HTU21D;54051;53.464;49.532;2023-05-16T09:46:56;24.72;28.18
67131;HTU21D;54051;53.464;49.532;2023-05-16T09:49:22;24.40;29.73
67131;HTU21D;54051;53.464;49.532;2023-05-16T09:51:49;24.23;30.11
67131;HTU21D;54051;53.464;49.532;2023-05-16T09:54:15;24.35;32.17
67131;HTU21D;54051;53.464;49.532;2023-05-16T09:56:47;24.36;31.90
67131;HTU21D;54051;53.464;49.532;2023-05-16T09:59:13;24.47;30.87
67131;HTU21D;54051;53.464;49.532;2023-05-16T10:01:39;24.86;29.84
67131;HTU21D;54051;53.464;49.532;2023-05-16T10:04:05;24.65;35.02
67131;HTU21D;54051;53.464;49.532;2023-05-16T10:06:31;24.19;27.71
67131;HTU21D;54051;53.464;49.532;2023-05-16T10:08:57;24.50;27.66
67131;HTU21D;54051;53.464;49.532;2023-05-16T10:11:24;24.82;25.33
67131;HTU21D;54051;53.464;49.532;2023-05-16T10:13:50;25.15;25.68
67131;HTU21D;54051;53.464;49.532;2023-05-16T10:16:17;25.39;25.62
67131;HTU21D;54051;53.464;49.532;2023-05-16T10:18:46;25.40;24.93
67131;HTU21D;54051;53.464;49.532;2023-05-16T10:21:15;25.77;23.89
67131;HTU21D;54051;53.464;49.532;2023-05-16T10:23:42;25.77;25.07
67131;HTU21D;54051;53.464;49.532;2023-05-16T10:26:15;26.04;24.47
67131;HTU21D;54051;53.464;49.532;2023-05-16T10:28:41;26.48;23.79
67131;HTU21D;54051;53.464;49.532;2023-05-16T10:31:07;26.81;24.17
67131;HTU21D;54051;53.464;49.532;2023-05-16T10:33:34;26.87;23.33
67131;HTU21D;54051;53.464;49.532;2023-05-16T10:36:00;25.83;25.33
67131;HTU21D;54051;53.464;49.532;2023-05-16T10:38:28;25.37;26.51
67131;HTU21D;54051;53.464;49.532;2023-05-16T10:40:54;25.07;27.29
67131;HTU21D;54051;53.464;49.532;2023-05-16T10:43:24;24.95;28.16
67131;HTU21D;54051;53.464;49.532;2023-05-16T10:45:53;24.76;29.32
67131;HTU21D;54051;53.464;49.532;2023-05-16T10:48:28;24.49;30.81
67131;HTU21D;54051;53.464;49.532;2023-05-16T10:50:54;24.26;30.29
67131;HTU21D;54051;53.464;49.532;2023-05-16T10:53:20;24.15;30.55
67131;HTU21D;54051;53.464;49.532;2023-05-16T10:56:04;24.57;29.41
67131;HTU21D;54051;53.464;49.532;2023-05-16T11:01:19;24.89;27.98
67131;HTU21D;54051;53.464;49.532;2023-05-16T11:06:30;24.65;28.20
67131;HTU21D;54051;53.464;49.532;2023-05-16T11:11:40;25.21;27.96
67131;HTU21D;54051;53.464;49.532;2023-05-16T11:14:07;25.40;27.39
67131;HTU21D;54051;53.464;49.532;2023-05-16T11:16:34;25.54;26.17
67131;HTU21D;54051;53.464;49.532;2023-05-16T11:19:03;25.76;25.46
67131;HTU21D;54051;53.464;49.532;2023-05-16T11:24:50;25.95;25.38
67131;HTU21D;54051;53.464;49.532;2023-05-16T11:27:32;25.95;25.54
67131;HTU21D;54051;53.464;49.532;2023-05-16T11:29:59;25.50;26.07
67131;HTU21D;54051;53.464;49.532;2023-05-16T11:32:25;25.19;26.84
67131;HTU21D;54051;53.464;49.532;2023-05-16T11:34:52;24.94;27.73
67131;HTU21D;54051;53.464;49.532;2023-05-16T11:37:19;24.97;26.91
67131;HTU21D;54051;53.464;49.532;2023-05-16T11:39:45;24.91;26.64
67131;HTU21D;54051;53.464;49.532;2023-05-16T11:42:11;24.88;27.12
67131;HTU21D;54051;53.464;49.532;2023-05-16T11:44:38;24.95;26.93
67131;HTU21D;54051;53.464;49.532;2023-05-16T11:47:04;24.61;28.35
67131;HTU21D;54051;53.464;49.532;2023-05-16T11:49:30;24.60;26.33
67131;HTU21D;54051;53.464;49.532;2023-05-16T11:51:56;24.66;27.29
67131;HTU21D;54051;53.464;49.532;2023-05-16T11:54:22;24.64;27.00
67131;HTU21D;54051;53.464;49.532;2023-05-16T11:56:52;24.45;27.48
67131;HTU21D;54051;53.464;49.532;2023-05-16T11:59:18;24.54;27.55
67131;HTU21D;54051;53.464;49.532;2023-05-16T12:01:45;24.84;27.91
67131;HTU21D;54051;53.464;49.532;2023-05-16T12:04:14;25.10;26.60
67131;HTU21D;54051;53.464;49.532;2023-05-16T12:06:40;25.19;24.34
67131;HTU21D;54051;53.464;49.532;2023-05-16T12:09:13;25.20;23.61
67131;HTU21D;54051;53.464;49.532;2023-05-16T12:11:40;25.36;24.47
67131;HTU21D;54051;53.464;49.532;2023-05-16T12:14:07;25.60;24.48
67131;HTU21D;54051;53.464;49.532;2023-05-16T12:16:34;25.77;23.42
67131;HTU21D;54051;53.464;49.532;2023-05-16T12:19:01;25.83;23.82
67131;HTU21D;54051;53.464;49.532;2023-05-16T12:21:29;25.75;24.00
67131;HTU21D;54051;53.464;49.532;2023-05-16T12:23:56;25.05;25.03
67131;HTU21D;54051;53.464;49.532;2023-05-16T12:26:30;24.38;30.10
67131;HTU21D;54051;53.464;49.532;2023-05-16T12:29:00;22.51;41.52
67131;HTU21D;54051;53.464;49.532;2023-05-16T12:31:28;21.14;45.00
67131;HTU21D;54051;53.464;49.532;2023-05-16T12:33:57;20.83;45.22
67131;HTU21D;54051;53.464;49.532;2023-05-16T12:36:23;20.76;43.93
67131;HTU21D;54051;53.464;49.532;2023-05-16T12:38:51;20.83;43.31
67131;HTU21D;54051;53.464;49.532;2023-05-16T12:41:21;20.99;45.83
67131;HTU21D;54051;53.464;49.532;2023-05-16T12:43:47;21.14;43.47
67131;HTU21D;54051;53.464;49.532;2023-05-16T12:46:13;21.23;46.07
67131;HTU21D;54051;53.464;49.532;2023-05-16T12:48:39;21.32;40.23
67131;HTU21D;54051;53.464;49.532;2023-05-16T12:51:12;21.48;45.13
67131;HTU21D;54051;53.464;49.532;2023-05-16T12:53:48;21.49;41.29
67131;HTU21D;54051;53.464;49.532;2023-05-16T12:56:14;21.53;43.27
67131;HTU21D;54051;53.464;49.532;2023-05-16T12:58:41;21.59;42.99
67131;HTU21D;54051;53.464;49.532;2023-05-16T13:01:07;21.81;39.51
67131;HTU21D;54051;53.464;49.532;2023-05-16T13:03:33;22.12;40.16
67131;HTU21D;54051;53.464;49.532;2023-05-16T13:05:59;22.52;43.15
67131;HTU21D;54051;53.464;49.532;2023-05-16T13:08:26;22.82;39.78
67131;HTU21D;54051;53.464;49.532;2023-05-16T13:10:52;23.07;42.13
67131;HTU21D;54051;53.464;49.532;2023-05-16T13:13:17;23.16;37.12
67131;HTU21D;54051;53.464;49.532;2023-05-16T13:15:44;23.27;39.17
67131;HTU21D;54051;53.464;49.532;2023-05-16T13:18:10;23.37;36.27
67131;HTU21D;54051;53.464;49.532;2023-05-16T13:20:36;23.29;36.63
67131;HTU21D;54051;53.464;49.532;2023-05-16T13:23:03;23.17;31.52
67131;HTU21D;54051;53.464;49.532;2023-05-16T13:25:35;23.15;30.43
67131;HTU21D;54051;53.464;49.532;2023-05-16T13:28:00;22.93;30.16
67131;HTU21D;54051;53.464;49.532;2023-05-16T13:30:26;22.82;32.06
67131;HTU21D;54051;53.464;49.532;2023-05-16T13:32:53;22.80;31.39
67131;HTU21D;54051;53.464;49.532;2023-05-16T13:35:19;22.83;32.49
67131;HTU21D;54051;53.464;49.532;2023-05-16T13:37:45;22.80;32.64
67131;HTU21D;54051;53.464;49.532;2023-05-16T13:40:10;22.87;32.58
67131;HTU21D;54051;53.464;49.532;2023-05-16T13:42:36;23.03;32.86
67131;HTU21D;54051;53.464;49.532;2023-05-16T13:45:03;23.10;31.85
67131;HTU21D;54051;53.464;49.532;2023-05-16T13:47:29;23.02;31.25
67131;HTU21D;54051;53.464;49.532;2023-05-16T13:49:55;23.13;31.49
67131;HTU21D;54051;53.464;49.532;2023-05-16T13:52:21;23.39;31.48
67131;HTU21D;54051;53.464;49.532;2023-05-16T13:54:47;23.83;31.02
67131;HTU21D;54051;53.464;49.532;2023-05-16T13:57:13;24.11;30.68
67131;HTU21D;54051;53.464;49.532;2023-05-16T13:59:39;24.23;30.84
67131;HTU21D;54051;53.464;49.532;2023-05-16T14:02:05;24.15;30.75
67131;HTU21D;54051;53.464;49.532;2023-05-16T14:04:30;23.94;30.46
67131;HTU21D;54051;53.464;49.532;2023-05-16T14:06:57;23.83;31.01
67131;HTU21D;54051;53.464;49.532;2023-05-16T14:09:23;23.64;30.91
67131;HTU21D;54051;53.464;49.532;2023-05-16T14:11:49;23.36;31.86
67131;HTU21D;54051;53.464;49.532;2023-05-16T14:14:15;23.11;31.71
67131;HTU21D;54051;53.464;49.532;2023-05-16T14:16:41;22.94;33.03
67131;HTU21D;54051;53.464;49.532;2023-05-16T14:19:10;22.71;34.90
67131;HTU21D;54051;53.464;49.532;2023-05-16T14:21:36;22.49;35.28
67131;HTU21D;54051;53.464;49.532;2023-05-16T14:24:02;22.34;38.62
67131;HTU21D;54051;53.464;49.532;2023-05-16T14:26:33;22.14;37.69
67131;HTU21D;54051;53.464;49.532;2023-05-16T14:28:59;22.01;38.14
67131;HTU21D;54051;53.464;49.532;2023-05-16T14:31:25;21.91;38.30
67131;HTU21D;54051;53.464;49.532;2023-05-16T14:33:51;21.87;39.83
67131;HTU21D;54051;53.464;49.532;2023-05-16T14:36:17;21.81;38.17
67131;HTU21D;54051;53.464;49.532;2023-05-16T14:38:43;21.87;38.59
67131;HTU21D;54051;53.464;49.532;2023-05-16T14:41:08;21.87;39.69
67131;HTU21D;54051;53.464;49.532;2023-05-16T14:43:34;21.83;39.23
67131;HTU21D;54051;53.464;49.532;2023-05-16T14:46:00;21.81;38.72
67131;HTU21D;54051;53.464;49.532;2023-05-16T14:48:26;21.81;37.85
67131;HTU21D;54051;53.464;49.532;2023-05-16T14:50:52;21.78;39.88
67131;HTU21D;54051;53.464;49.532;2023-05-16T14:53:18;21.74;37.77
67131;HTU21D;54051;53.464;49.532;2023-05-16T14:55:46;21.69;38.91
67131;HTU21D;54051;53.464;49.532;2023-05-16T14:58:11;21.66;39.06
67131;HTU21D;54051;53.464;49.532;2023-05-16T15:00:37;21.63;39.58
67131;HTU21D;54051;53.464;49.532;2023-05-16T15:03:06;21.58;40.12
67131;HTU21D;54051;53.464;49.532;2023-05-16T15:05:32;21.50;39.31
67131;HTU21D;54051;53.464;49.532;2023-05-16T15:07:58;21.48;40.90
67131;HTU21D;54051;53.464;49.532;2023-05-16T15:10:24;21.46;39.40
67131;HTU21D;54051;53.464;49.532;2023-05-16T15:12:53;21.48;39.91
67131;HTU21D;54051;53.464;49.532;2023-05-16T15:15:19;21.49;39.73
67131;HTU21D;54051;53.464;49.532;2023-05-16T15:17:45;21.50;40.44
67131;HTU21D;54051;53.464;49.532;2023-05-16T15:20:11;21.48;40.84
67131;HTU21D;54051;53.464;49.532;2023-05-16T15:22:38;21.47;41.13
67131;HTU21D;54051;53.464;49.532;2023-05-16T15:25:10;21.46;41.13
67131;HTU21D;54051;53.464;49.532;2023-05-16T15:27:36;21.43;41.48
67131;HTU21D;54051;53.464;49.532;2023-05-16T15:30:02;21.46;40.17
67131;HTU21D;54051;53.464;49.532;2023-05-16T15:32:28;21.47;40.94